Terminal Aerodrome Forecast
Issued by NWS

Home | Current Version | Previous Version | Text Only | Print | Product List | Glossary On
Versions: 1 2 3 4 5 6 7 8 9 10 11 12 13 14 15 16 17 18 19 20 21 22 23
000
FTUS43 KAPX 281120
TAFTVC
TAF
KTVC 281120Z 2812/2912 19007KT P6SM BKN140
     FM281600 19011KT P6SM BKN080
     FM281900 20011KT P6SM VCTS BKN070CB
     FM282300 20007KT P6SM VCSH BKN120
     FM290600 19005KT P6SM BKN080=

USA.gov is the U.S. government's official web portal to all federal, state and local government web resources and services.